sensor_id;sensor_type;location;lat;lon;timestamp;P1;durP1;ratioP1;P2;durP2;ratioP2
36449;SDS011;22475;51.390;7.180;2023-02-28T00:00:16;5.87;;;3.60;;
36449;SDS011;22475;51.390;7.180;2023-02-28T00:02:43;3.60;;;2.55;;
36449;SDS011;22475;51.390;7.180;2023-02-28T00:05:13;5.57;;;3.33;;
36449;SDS011;22475;51.390;7.180;2023-02-28T00:10:09;6.68;;;3.60;;
36449;SDS011;22475;51.390;7.180;2023-02-28T00:12:37;7.82;;;3.35;;
36449;SDS011;22475;51.390;7.180;2023-02-28T00:15:05;5.30;;;2.83;;
36449;SDS011;22475;51.390;7.180;2023-02-28T00:17:32;6.93;;;3.88;;
36449;SDS011;22475;51.390;7.180;2023-02-28T00:19:59;7.32;;;2.72;;
36449;SDS011;22475;51.390;7.180;2023-02-28T00:22:38;4.45;;;2.90;;
36449;SDS011;22475;51.390;7.180;2023-02-28T00:25:06;3.85;;;2.22;;
36449;SDS011;22475;51.390;7.180;2023-02-28T00:27:33;6.80;;;3.00;;
36449;SDS011;22475;51.390;7.180;2023-02-28T00:30:02;8.48;;;3.33;;
36449;SDS011;22475;51.390;7.180;2023-02-28T00:32:30;5.97;;;3.53;;
36449;SDS011;22475;51.390;7.180;2023-02-28T00:34:56;7.05;;;3.25;;
36449;SDS011;22475;51.390;7.180;2023-02-28T00:37:23;9.32;;;2.90;;
36449;SDS011;22475;51.390;7.180;2023-02-28T00:39:51;3.42;;;3.05;;
36449;SDS011;22475;51.390;7.180;2023-02-28T00:42:18;4.00;;;2.58;;
36449;SDS011;22475;51.390;7.180;2023-02-28T00:44:45;4.53;;;3.05;;
36449;SDS011;22475;51.390;7.180;2023-02-28T00:47:11;4.80;;;2.72;;
36449;SDS011;22475;51.390;7.180;2023-02-28T00:49:38;8.80;;;2.90;;
36449;SDS011;22475;51.390;7.180;2023-02-28T00:52:05;5.75;;;2.90;;
36449;SDS011;22475;51.390;7.180;2023-02-28T00:54:32;5.93;;;3.30;;
36449;SDS011;22475;51.390;7.180;2023-02-28T00:57:00;4.22;;;2.63;;
36449;SDS011;22475;51.390;7.180;2023-02-28T00:59:27;5.70;;;3.38;;
36449;SDS011;22475;51.390;7.180;2023-02-28T01:01:53;2.85;;;2.33;;
36449;SDS011;22475;51.390;7.180;2023-02-28T01:04:20;6.88;;;3.10;;
36449;SDS011;22475;51.390;7.180;2023-02-28T01:06:47;5.40;;;3.25;;
36449;SDS011;22475;51.390;7.180;2023-02-28T01:09:14;3.60;;;2.97;;
36449;SDS011;22475;51.390;7.180;2023-02-28T01:11:41;7.38;;;3.10;;
36449;SDS011;22475;51.390;7.180;2023-02-28T01:14:10;8.32;;;3.67;;
36449;SDS011;22475;51.390;7.180;2023-02-28T01:16:38;6.53;;;3.40;;
36449;SDS011;22475;51.390;7.180;2023-02-28T01:19:05;6.32;;;3.50;;
36449;SDS011;22475;51.390;7.180;2023-02-28T01:21:32;5.10;;;3.20;;
36449;SDS011;22475;51.390;7.180;2023-02-28T01:24:00;5.28;;;2.67;;
36449;SDS011;22475;51.390;7.180;2023-02-28T01:26:27;10.60;;;3.70;;
36449;SDS011;22475;51.390;7.180;2023-02-28T01:28:54;7.63;;;2.88;;
36449;SDS011;22475;51.390;7.180;2023-02-28T01:31:23;7.60;;;3.90;;
36449;SDS011;22475;51.390;7.180;2023-02-28T01:33:50;4.45;;;3.75;;
36449;SDS011;22475;51.390;7.180;2023-02-28T01:36:17;7.53;;;3.55;;
36449;SDS011;22475;51.390;7.180;2023-02-28T01:38:46;9.18;;;2.88;;
36449;SDS011;22475;51.390;7.180;2023-02-28T01:41:15;3.08;;;2.78;;
36449;SDS011;22475;51.390;7.180;2023-02-28T01:44:00;7.45;;;2.80;;
36449;SDS011;22475;51.390;7.180;2023-02-28T01:46:33;4.70;;;3.13;;
36449;SDS011;22475;51.390;7.180;2023-02-28T01:49:02;7.82;;;3.38;;
36449;SDS011;22475;51.390;7.180;2023-02-28T01:51:35;5.95;;;2.78;;
36449;SDS011;22475;51.390;7.180;2023-02-28T01:54:11;3.92;;;2.50;;
36449;SDS011;22475;51.390;7.180;2023-02-28T01:56:42;5.38;;;3.20;;
36449;SDS011;22475;51.390;7.180;2023-02-28T01:59:12;6.28;;;3.00;;
36449;SDS011;22475;51.390;7.180;2023-02-28T02:01:45;8.00;;;3.03;;
36449;SDS011;22475;51.390;7.180;2023-02-28T02:04:11;5.78;;;3.25;;
36449;SDS011;22475;51.390;7.180;2023-02-28T02:06:40;2.97;;;2.53;;
36449;SDS011;22475;51.390;7.180;2023-02-28T02:09:10;6.85;;;2.53;;
36449;SDS011;22475;51.390;7.180;2023-02-28T02:11:37;8.88;;;2.80;;
36449;SDS011;22475;51.390;7.180;2023-02-28T02:14:10;9.77;;;3.60;;
36449;SDS011;22475;51.390;7.180;2023-02-28T02:17:02;6.35;;;2.85;;
36449;SDS011;22475;51.390;7.180;2023-02-28T02:19:53;4.70;;;3.17;;
36449;SDS011;22475;51.390;7.180;2023-02-28T02:22:52;7.45;;;3.15;;
36449;SDS011;22475;51.390;7.180;2023-02-28T02:25:45;8.15;;;2.80;;
36449;SDS011;22475;51.390;7.180;2023-02-28T02:28:22;3.05;;;1.98;;
36449;SDS011;22475;51.390;7.180;2023-02-28T02:34:08;4.68;;;3.33;;
36449;SDS011;22475;51.390;7.180;2023-02-28T02:36:51;7.40;;;2.20;;
36449;SDS011;22475;51.390;7.180;2023-02-28T02:39:25;9.65;;;3.22;;
36449;SDS011;22475;51.390;7.180;2023-02-28T02:41:59;4.75;;;2.80;;
36449;SDS011;22475;51.390;7.180;2023-02-28T02:44:30;8.93;;;3.20;;
36449;SDS011;22475;51.390;7.180;2023-02-28T02:47:03;4.25;;;2.60;;
36449;SDS011;22475;51.390;7.180;2023-02-28T02:49:36;4.57;;;3.05;;
36449;SDS011;22475;51.390;7.180;2023-02-28T02:52:07;4.35;;;2.20;;
36449;SDS011;22475;51.390;7.180;2023-02-28T02:54:37;6.85;;;2.92;;
36449;SDS011;22475;51.390;7.180;2023-02-28T02:57:07;3.30;;;2.65;;
36449;SDS011;22475;51.390;7.180;2023-02-28T02:59:37;4.18;;;2.90;;
36449;SDS011;22475;51.390;7.180;2023-02-28T03:02:06;3.45;;;2.40;;
36449;SDS011;22475;51.390;7.180;2023-02-28T03:04:38;4.20;;;2.35;;
36449;SDS011;22475;51.390;7.180;2023-02-28T03:07:09;4.47;;;3.17;;
36449;SDS011;22475;51.390;7.180;2023-02-28T03:09:36;4.32;;;2.78;;
36449;SDS011;22475;51.390;7.180;2023-02-28T03:12:04;8.63;;;3.00;;
36449;SDS011;22475;51.390;7.180;2023-02-28T03:14:39;3.97;;;2.42;;
36449;SDS011;22475;51.390;7.180;2023-02-28T03:17:16;4.13;;;2.40;;
36449;SDS011;22475;51.390;7.180;2023-02-28T03:20:03;6.55;;;2.47;;
36449;SDS011;22475;51.390;7.180;2023-02-28T03:22:40;5.53;;;2.53;;
36449;SDS011;22475;51.390;7.180;2023-02-28T03:25:18;3.38;;;1.65;;
36449;SDS011;22475;51.390;7.180;2023-02-28T03:27:54;4.10;;;2.33;;
36449;SDS011;22475;51.390;7.180;2023-02-28T03:30:29;4.10;;;2.28;;
36449;SDS011;22475;51.390;7.180;2023-02-28T03:33:03;8.40;;;2.20;;
36449;SDS011;22475;51.390;7.180;2023-02-28T03:35:36;2.65;;;2.38;;
36449;SDS011;22475;51.390;7.180;2023-02-28T03:38:07;3.63;;;2.60;;
36449;SDS011;22475;51.390;7.180;2023-02-28T03:40:39;6.88;;;2.45;;
36449;SDS011;22475;51.390;7.180;2023-02-28T03:43:09;2.43;;;2.07;;
36449;SDS011;22475;51.390;7.180;2023-02-28T03:48:08;4.10;;;2.10;;
36449;SDS011;22475;51.390;7.180;2023-02-28T03:50:41;7.03;;;2.67;;
36449;SDS011;22475;51.390;7.180;2023-02-28T03:53:11;4.10;;;1.63;;
36449;SDS011;22475;51.390;7.180;2023-02-28T03:55:42;4.73;;;2.33;;
36449;SDS011;22475;51.390;7.180;2023-02-28T03:58:12;5.57;;;2.72;;
36449;SDS011;22475;51.390;7.180;2023-02-28T04:00:46;4.88;;;2.22;;
36449;SDS011;22475;51.390;7.180;2023-02-28T04:05:50;3.53;;;2.13;;
36449;SDS011;22475;51.390;7.180;2023-02-28T04:08:18;2.88;;;1.90;;
36449;SDS011;22475;51.390;7.180;2023-02-28T04:10:47;3.70;;;2.17;;
36449;SDS011;22475;51.390;7.180;2023-02-28T04:13:21;5.70;;;2.10;;
36449;SDS011;22475;51.390;7.180;2023-02-28T04:15:48;3.22;;;2.17;;
36449;SDS011;22475;51.390;7.180;2023-02-28T04:18:15;3.85;;;2.10;;
36449;SDS011;22475;51.390;7.180;2023-02-28T04:20:41;2.10;;;1.88;;
36449;SDS011;22475;51.390;7.180;2023-02-28T04:23:09;3.30;;;2.05;;
36449;SDS011;22475;51.390;7.180;2023-02-28T04:25:36;3.17;;;1.88;;
36449;SDS011;22475;51.390;7.180;2023-02-28T04:28:05;4.18;;;2.05;;
36449;SDS011;22475;51.390;7.180;2023-02-28T04:30:32;3.55;;;1.92;;
36449;SDS011;22475;51.390;7.180;2023-02-28T04:32:59;2.13;;;1.88;;
36449;SDS011;22475;51.390;7.180;2023-02-28T04:35:26;3.00;;;1.73;;
36449;SDS011;22475;51.390;7.180;2023-02-28T04:37:53;2.08;;;1.88;;
36449;SDS011;22475;51.390;7.180;2023-02-28T04:40:21;3.45;;;2.78;;
36449;SDS011;22475;51.390;7.180;2023-02-28T04:42:48;3.28;;;2.10;;
36449;SDS011;22475;51.390;7.180;2023-02-28T04:45:14;2.80;;;2.50;;
36449;SDS011;22475;51.390;7.180;2023-02-28T04:47:42;2.28;;;2.17;;
36449;SDS011;22475;51.390;7.180;2023-02-28T04:50:09;4.78;;;2.25;;
36449;SDS011;22475;51.390;7.180;2023-02-28T04:52:36;6.65;;;2.13;;
36449;SDS011;22475;51.390;7.180;2023-02-28T04:55:03;5.53;;;2.03;;
36449;SDS011;22475;51.390;7.180;2023-02-28T04:57:32;2.17;;;1.95;;
36449;SDS011;22475;51.390;7.180;2023-02-28T04:59:59;4.43;;;2.38;;
36449;SDS011;22475;51.390;7.180;2023-02-28T05:02:25;3.92;;;2.47;;
36449;SDS011;22475;51.390;7.180;2023-02-28T05:04:52;2.92;;;2.15;;
36449;SDS011;22475;51.390;7.180;2023-02-28T05:07:19;7.88;;;2.00;;
36449;SDS011;22475;51.390;7.180;2023-02-28T05:09:45;4.18;;;2.35;;
36449;SDS011;22475;51.390;7.180;2023-02-28T05:12:12;7.20;;;1.92;;
36449;SDS011;22475;51.390;7.180;2023-02-28T05:14:40;7.18;;;2.53;;
36449;SDS011;22475;51.390;7.180;2023-02-28T05:17:08;6.18;;;2.17;;
36449;SDS011;22475;51.390;7.180;2023-02-28T05:19:35;5.00;;;2.40;;
36449;SDS011;22475;51.390;7.180;2023-02-28T05:22:01;3.88;;;2.15;;
36449;SDS011;22475;51.390;7.180;2023-02-28T05:24:29;6.85;;;2.45;;
36449;SDS011;22475;51.390;7.180;2023-02-28T05:26:56;3.08;;;1.90;;
36449;SDS011;22475;51.390;7.180;2023-02-28T05:29:22;4.50;;;2.50;;
36449;SDS011;22475;51.390;7.180;2023-02-28T05:31:51;2.20;;;1.83;;
36449;SDS011;22475;51.390;7.180;2023-02-28T05:34:17;2.17;;;1.98;;
36449;SDS011;22475;51.390;7.180;2023-02-28T05:36:44;4.10;;;2.50;;
36449;SDS011;22475;51.390;7.180;2023-02-28T05:39:11;3.70;;;2.13;;
36449;SDS011;22475;51.390;7.180;2023-02-28T05:41:41;4.53;;;1.52;;
36449;SDS011;22475;51.390;7.180;2023-02-28T05:46:36;4.43;;;2.17;;
36449;SDS011;22475;51.390;7.180;2023-02-28T05:49:04;5.45;;;2.78;;
36449;SDS011;22475;51.390;7.180;2023-02-28T05:51:31;4.05;;;2.28;;
36449;SDS011;22475;51.390;7.180;2023-02-28T05:53:59;4.18;;;2.15;;
36449;SDS011;22475;51.390;7.180;2023-02-28T05:56:27;2.30;;;1.73;;
36449;SDS011;22475;51.390;7.180;2023-02-28T05:58:54;5.45;;;2.53;;
36449;SDS011;22475;51.390;7.180;2023-02-28T06:01:22;3.45;;;2.33;;
36449;SDS011;22475;51.390;7.180;2023-02-28T06:03:50;3.13;;;2.42;;
36449;SDS011;22475;51.390;7.180;2023-02-28T06:06:19;7.80;;;2.63;;
36449;SDS011;22475;51.390;7.180;2023-02-28T06:08:45;4.95;;;2.28;;
36449;SDS011;22475;51.390;7.180;2023-02-28T06:11:12;2.42;;;1.77;;
36449;SDS011;22475;51.390;7.180;2023-02-28T06:13:39;4.40;;;2.50;;
36449;SDS011;22475;51.390;7.180;2023-02-28T06:16:07;5.35;;;2.00;;
36449;SDS011;22475;51.390;7.180;2023-02-28T06:18:36;7.82;;;1.73;;
36449;SDS011;22475;51.390;7.180;2023-02-28T06:21:03;3.00;;;1.77;;
36449;SDS011;22475;51.390;7.180;2023-02-28T06:23:31;3.38;;;2.13;;
36449;SDS011;22475;51.390;7.180;2023-02-28T06:25:58;6.10;;;2.25;;
36449;SDS011;22475;51.390;7.180;2023-02-28T06:28:25;3.67;;;1.85;;
36449;SDS011;22475;51.390;7.180;2023-02-28T06:30:52;6.28;;;2.50;;
36449;SDS011;22475;51.390;7.180;2023-02-28T06:33:19;5.82;;;1.80;;
36449;SDS011;22475;51.390;7.180;2023-02-28T06:35:46;5.60;;;2.00;;
36449;SDS011;22475;51.390;7.180;2023-02-28T06:38:13;8.02;;;2.47;;
36449;SDS011;22475;51.390;7.180;2023-02-28T06:40:41;8.93;;;2.00;;
36449;SDS011;22475;51.390;7.180;2023-02-28T06:43:08;2.10;;;1.98;;
36449;SDS011;22475;51.390;7.180;2023-02-28T06:45:40;3.35;;;3.03;;
36449;SDS011;22475;51.390;7.180;2023-02-28T06:48:08;2.53;;;2.33;;
36449;SDS011;22475;51.390;7.180;2023-02-28T06:50:35;2.85;;;2.08;;
36449;SDS011;22475;51.390;7.180;2023-02-28T06:53:02;3.95;;;2.28;;
36449;SDS011;22475;51.390;7.180;2023-02-28T06:55:28;5.88;;;3.13;;
36449;SDS011;22475;51.390;7.180;2023-02-28T06:57:57;5.72;;;3.60;;
36449;SDS011;22475;51.390;7.180;2023-02-28T07:00:23;10.30;;;3.38;;
36449;SDS011;22475;51.390;7.180;2023-02-28T07:02:50;6.30;;;2.92;;
36449;SDS011;22475;51.390;7.180;2023-02-28T07:05:18;5.15;;;3.08;;
36449;SDS011;22475;51.390;7.180;2023-02-28T07:07:45;10.93;;;3.05;;
36449;SDS011;22475;51.390;7.180;2023-02-28T07:10:12;3.17;;;2.90;;
36449;SDS011;22475;51.390;7.180;2023-02-28T07:12:41;7.25;;;3.15;;
36449;SDS011;22475;51.390;7.180;2023-02-28T07:15:10;3.10;;;2.80;;
36449;SDS011;22475;51.390;7.180;2023-02-28T07:17:37;8.55;;;3.22;;
36449;SDS011;22475;51.390;7.180;2023-02-28T07:20:04;8.25;;;3.35;;
36449;SDS011;22475;51.390;7.180;2023-02-28T07:22:32;5.35;;;3.65;;
36449;SDS011;22475;51.390;7.180;2023-02-28T07:24:58;4.60;;;3.58;;
36449;SDS011;22475;51.390;7.180;2023-02-28T07:27:25;3.42;;;3.10;;
36449;SDS011;22475;51.390;7.180;2023-02-28T07:29:52;8.32;;;3.90;;
36449;SDS011;22475;51.390;7.180;2023-02-28T07:32:21;6.35;;;3.65;;
36449;SDS011;22475;51.390;7.180;2023-02-28T07:34:48;7.50;;;4.18;;
36449;SDS011;22475;51.390;7.180;2023-02-28T07:37:14;7.20;;;3.53;;
36449;SDS011;22475;51.390;7.180;2023-02-28T07:39:41;9.18;;;3.40;;
36449;SDS011;22475;51.390;7.180;2023-02-28T07:42:08;13.10;;;3.40;;
36449;SDS011;22475;51.390;7.180;2023-02-28T07:44:35;3.90;;;3.17;;
36449;SDS011;22475;51.390;7.180;2023-02-28T07:47:05;3.85;;;3.08;;
36449;SDS011;22475;51.390;7.180;2023-02-28T07:49:33;6.10;;;3.83;;
36449;SDS011;22475;51.390;7.180;2023-02-28T07:52:00;5.30;;;2.92;;
36449;SDS011;22475;51.390;7.180;2023-02-28T07:54:27;6.20;;;3.42;;
36449;SDS011;22475;51.390;7.180;2023-02-28T07:56:54;3.55;;;3.25;;
36449;SDS011;22475;51.390;7.180;2023-02-28T07:59:21;6.40;;;3.40;;
36449;SDS011;22475;51.390;7.180;2023-02-28T08:01:48;9.80;;;3.28;;
36449;SDS011;22475;51.390;7.180;2023-02-28T08:04:15;4.03;;;3.00;;
36449;SDS011;22475;51.390;7.180;2023-02-28T08:06:43;7.53;;;2.90;;
36449;SDS011;22475;51.390;7.180;2023-02-28T08:09:10;6.60;;;3.38;;
36449;SDS011;22475;51.390;7.180;2023-02-28T08:11:37;5.82;;;2.72;;
36449;SDS011;22475;51.390;7.180;2023-02-28T08:14:06;3.92;;;2.50;;
36449;SDS011;22475;51.390;7.180;2023-02-28T08:16:33;3.60;;;2.97;;
36449;SDS011;22475;51.390;7.180;2023-02-28T08:18:59;4.13;;;2.95;;
36449;SDS011;22475;51.390;7.180;2023-02-28T08:21:26;9.57;;;3.30;;
36449;SDS011;22475;51.390;7.180;2023-02-28T08:23:54;4.80;;;3.13;;
36449;SDS011;22475;51.390;7.180;2023-02-28T08:26:22;5.07;;;3.50;;
36449;SDS011;22475;51.390;7.180;2023-02-28T08:28:49;2.97;;;2.60;;
36449;SDS011;22475;51.390;7.180;2023-02-28T08:31:16;3.72;;;2.80;;
36449;SDS011;22475;51.390;7.180;2023-02-28T08:33:44;7.18;;;3.78;;
36449;SDS011;22475;51.390;7.180;2023-02-28T08:36:13;6.07;;;2.83;;
36449;SDS011;22475;51.390;7.180;2023-02-28T08:38:41;7.45;;;2.75;;
36449;SDS011;22475;51.390;7.180;2023-02-28T08:41:10;9.57;;;2.35;;
36449;SDS011;22475;51.390;7.180;2023-02-28T08:43:38;3.55;;;2.75;;
36449;SDS011;22475;51.390;7.180;2023-02-28T08:46:05;2.97;;;2.55;;
36449;SDS011;22475;51.390;7.180;2023-02-28T08:48:34;7.07;;;2.85;;
36449;SDS011;22475;51.390;7.180;2023-02-28T08:51:04;9.70;;;2.70;;
36449;SDS011;22475;51.390;7.180;2023-02-28T08:53:32;3.03;;;2.67;;
36449;SDS011;22475;51.390;7.180;2023-02-28T08:55:59;8.43;;;2.90;;
36449;SDS011;22475;51.390;7.180;2023-02-28T08:58:28;4.18;;;2.47;;
36449;SDS011;22475;51.390;7.180;2023-02-28T09:00:55;8.30;;;2.85;;
36449;SDS011;22475;51.390;7.180;2023-02-28T09:03:22;5.43;;;2.40;;
36449;SDS011;22475;51.390;7.180;2023-02-28T09:05:54;3.42;;;2.40;;
36449;SDS011;22475;51.390;7.180;2023-02-28T09:08:21;3.85;;;2.60;;
36449;SDS011;22475;51.390;7.180;2023-02-28T09:10:48;2.50;;;1.88;;
36449;SDS011;22475;51.390;7.180;2023-02-28T09:13:15;2.47;;;2.08;;
36449;SDS011;22475;51.390;7.180;2023-02-28T09:15:44;4.20;;;2.03;;
36449;SDS011;22475;51.390;7.180;2023-02-28T09:18:11;3.92;;;2.08;;
36449;SDS011;22475;51.390;7.180;2023-02-28T09:20:38;3.90;;;2.28;;
36449;SDS011;22475;51.390;7.180;2023-02-28T09:23:06;2.65;;;2.30;;
36449;SDS011;22475;51.390;7.180;2023-02-28T09:25:33;3.17;;;1.85;;
36449;SDS011;22475;51.390;7.180;2023-02-28T09:28:00;2.22;;;1.85;;
36449;SDS011;22475;51.390;7.180;2023-02-28T09:30:28;3.85;;;1.95;;
36449;SDS011;22475;51.390;7.180;2023-02-28T09:32:56;4.13;;;2.10;;
36449;SDS011;22475;51.390;7.180;2023-02-28T09:35:23;2.75;;;1.60;;
36449;SDS011;22475;51.390;7.180;2023-02-28T09:37:51;5.28;;;2.55;;
36449;SDS011;22475;51.390;7.180;2023-02-28T09:40:18;1.48;;;1.38;;
36449;SDS011;22475;51.390;7.180;2023-02-28T09:42:47;3.33;;;2.38;;
36449;SDS011;22475;51.390;7.180;2023-02-28T09:45:18;2.22;;;2.03;;
36449;SDS011;22475;51.390;7.180;2023-02-28T09:47:48;2.58;;;1.50;;
36449;SDS011;22475;51.390;7.180;2023-02-28T09:50:21;3.95;;;1.40;;
36449;SDS011;22475;51.390;7.180;2023-02-28T09:52:55;4.00;;;1.85;;
36449;SDS011;22475;51.390;7.180;2023-02-28T09:55:25;1.85;;;1.70;;
36449;SDS011;22475;51.390;7.180;2023-02-28T09:57:56;1.92;;;1.70;;
36449;SDS011;22475;51.390;7.180;2023-02-28T10:00:27;2.75;;;1.60;;
36449;SDS011;22475;51.390;7.180;2023-02-28T10:03:04;2.80;;;1.88;;
36449;SDS011;22475;51.390;7.180;2023-02-28T10:05:50;1.33;;;1.13;;
36449;SDS011;22475;51.390;7.180;2023-02-28T10:08:20;4.63;;;1.50;;
36449;SDS011;22475;51.390;7.180;2023-02-28T10:10:51;2.22;;;1.65;;
36449;SDS011;22475;51.390;7.180;2023-02-28T10:13:23;2.33;;;1.30;;
36449;SDS011;22475;51.390;7.180;2023-02-28T10:15:54;4.25;;;1.52;;
36449;SDS011;22475;51.390;7.180;2023-02-28T10:18:28;2.35;;;1.73;;
36449;SDS011;22475;51.390;7.180;2023-02-28T10:21:04;4.80;;;1.92;;
36449;SDS011;22475;51.390;7.180;2023-02-28T10:23:33;2.17;;;1.52;;
36449;SDS011;22475;51.390;7.180;2023-02-28T10:26:05;2.90;;;1.75;;
36449;SDS011;22475;51.390;7.180;2023-02-28T10:28:38;1.48;;;1.38;;
36449;SDS011;22475;51.390;7.180;2023-02-28T10:31:06;1.70;;;1.60;;
36449;SDS011;22475;51.390;7.180;2023-02-28T10:33:37;2.63;;;1.70;;
36449;SDS011;22475;51.390;7.180;2023-02-28T10:36:08;3.63;;;1.67;;
36449;SDS011;22475;51.390;7.180;2023-02-28T10:38:39;6.05;;;2.25;;
36449;SDS011;22475;51.390;7.180;2023-02-28T10:41:06;1.50;;;1.13;;
36449;SDS011;22475;51.390;7.180;2023-02-28T10:43:35;1.35;;;1.20;;
36449;SDS011;22475;51.390;7.180;2023-02-28T10:46:03;2.83;;;1.67;;
36449;SDS011;22475;51.390;7.180;2023-02-28T10:48:40;2.30;;;1.35;;
36449;SDS011;22475;51.390;7.180;2023-02-28T10:51:11;1.17;;;0.98;;
36449;SDS011;22475;51.390;7.180;2023-02-28T10:53:44;4.78;;;1.70;;
36449;SDS011;22475;51.390;7.180;2023-02-28T10:56:15;2.50;;;0.90;;
36449;SDS011;22475;51.390;7.180;2023-02-28T10:58:48;1.75;;;1.17;;
36449;SDS011;22475;51.390;7.180;2023-02-28T11:01:18;1.83;;;1.33;;
36449;SDS011;22475;51.390;7.180;2023-02-28T11:03:46;2.70;;;1.13;;
36449;SDS011;22475;51.390;7.180;2023-02-28T11:06:16;3.67;;;2.10;;
36449;SDS011;22475;51.390;7.180;2023-02-28T11:08:46;2.15;;;1.00;;
36449;SDS011;22475;51.390;7.180;2023-02-28T11:11:14;1.15;;;1.00;;
36449;SDS011;22475;51.390;7.180;2023-02-28T11:13:43;4.65;;;1.40;;
36449;SDS011;22475;51.390;7.180;2023-02-28T11:16:12;1.90;;;1.17;;
36449;SDS011;22475;51.390;7.180;2023-02-28T11:18:41;1.48;;;1.25;;
36449;SDS011;22475;51.390;7.180;2023-02-28T11:21:15;2.10;;;1.08;;
36449;SDS011;22475;51.390;7.180;2023-02-28T11:23:46;1.38;;;1.23;;
36449;SDS011;22475;51.390;7.180;2023-02-28T11:26:15;2.13;;;1.13;;
36449;SDS011;22475;51.390;7.180;2023-02-28T11:29:03;2.05;;;1.13;;
36449;SDS011;22475;51.390;7.180;2023-02-28T11:31:36;4.18;;;1.63;;
36449;SDS011;22475;51.390;7.180;2023-02-28T11:34:10;1.50;;;0.77;;
36449;SDS011;22475;51.390;7.180;2023-02-28T11:36:51;1.40;;;1.17;;
36449;SDS011;22475;51.390;7.180;2023-02-28T11:39:20;1.30;;;1.20;;
36449;SDS011;22475;51.390;7.180;2023-02-28T11:41:54;1.73;;;1.05;;
36449;SDS011;22475;51.390;7.180;2023-02-28T11:44:30;2.45;;;1.13;;
36449;SDS011;22475;51.390;7.180;2023-02-28T11:47:09;1.25;;;1.05;;
36449;SDS011;22475;51.390;7.180;2023-02-28T11:49:43;1.98;;;0.90;;
36449;SDS011;22475;51.390;7.180;2023-02-28T11:52:21;1.83;;;1.20;;
36449;SDS011;22475;51.390;7.180;2023-02-28T11:55:03;1.52;;;1.10;;
36449;SDS011;22475;51.390;7.180;2023-02-28T11:57:36;1.75;;;1.00;;
36449;SDS011;22475;51.390;7.180;2023-02-28T12:00:19;1.92;;;0.98;;
36449;SDS011;22475;51.390;7.180;2023-02-28T12:03:11;1.55;;;0.90;;
36449;SDS011;22475;51.390;7.180;2023-02-28T12:05:45;1.45;;;0.82;;
36449;SDS011;22475;51.390;7.180;2023-02-28T12:08:22;1.10;;;0.95;;
36449;SDS011;22475;51.390;7.180;2023-02-28T12:10:57;1.00;;;1.00;;
36449;SDS011;22475;51.390;7.180;2023-02-28T12:13:34;1.25;;;1.13;;
36449;SDS011;22475;51.390;7.180;2023-02-28T12:19:09;1.70;;;1.00;;
36449;SDS011;22475;51.390;7.180;2023-02-28T12:21:48;3.42;;;2.45;;
36449;SDS011;22475;51.390;7.180;2023-02-28T12:24:47;1.60;;;1.10;;
36449;SDS011;22475;51.390;7.180;2023-02-28T12:27:21;1.50;;;0.88;;
36449;SDS011;22475;51.390;7.180;2023-02-28T12:29:51;3.47;;;1.17;;
36449;SDS011;22475;51.390;7.180;2023-02-28T12:32:23;1.33;;;0.68;;
36449;SDS011;22475;51.390;7.180;2023-02-28T12:34:54;1.15;;;0.98;;
36449;SDS011;22475;51.390;7.180;2023-02-28T12:37:25;2.22;;;1.15;;
36449;SDS011;22475;51.390;7.180;2023-02-28T12:40:00;1.35;;;0.95;;
36449;SDS011;22475;51.390;7.180;2023-02-28T12:42:31;1.15;;;0.82;;
36449;SDS011;22475;51.390;7.180;2023-02-28T12:45:03;2.60;;;1.13;;
36449;SDS011;22475;51.390;7.180;2023-02-28T12:47:36;1.88;;;1.25;;
36449;SDS011;22475;51.390;7.180;2023-02-28T12:50:07;2.15;;;1.60;;
36449;SDS011;22475;51.390;7.180;2023-02-28T12:52:37;2.38;;;0.85;;
36449;SDS011;22475;51.390;7.180;2023-02-28T12:55:14;0.95;;;0.90;;
36449;SDS011;22475;51.390;7.180;2023-02-28T12:57:48;1.60;;;0.88;;
36449;SDS011;22475;51.390;7.180;2023-02-28T13:00:24;2.22;;;0.57;;
36449;SDS011;22475;51.390;7.180;2023-02-28T13:03:07;1.23;;;1.00;;
36449;SDS011;22475;51.390;7.180;2023-02-28T13:06:01;1.20;;;0.75;;
36449;SDS011;22475;51.390;7.180;2023-02-28T13:08:59;2.03;;;1.35;;
36449;SDS011;22475;51.390;7.180;2023-02-28T13:11:31;1.08;;;1.08;;
36449;SDS011;22475;51.390;7.180;2023-02-28T13:14:04;2.97;;;0.95;;
36449;SDS011;22475;51.390;7.180;2023-02-28T13:16:55;1.45;;;1.17;;
36449;SDS011;22475;51.390;7.180;2023-02-28T13:19:26;3.78;;;1.10;;
36449;SDS011;22475;51.390;7.180;2023-02-28T13:21:54;2.28;;;1.00;;
36449;SDS011;22475;51.390;7.180;2023-02-28T13:30:00;1.05;;;1.00;;
36449;SDS011;22475;51.390;7.180;2023-02-28T13:32:51;0.90;;;0.85;;
36449;SDS011;22475;51.390;7.180;2023-02-28T13:38:37;1.13;;;1.10;;
36449;SDS011;22475;51.390;7.180;2023-02-28T13:44:07;1.27;;;0.93;;
36449;SDS011;22475;51.390;7.180;2023-02-28T13:46:36;1.20;;;1.10;;
36449;SDS011;22475;51.390;7.180;2023-02-28T13:49:36;3.03;;;0.93;;
36449;SDS011;22475;51.390;7.180;2023-02-28T13:52:06;0.88;;;0.88;;
36449;SDS011;22475;51.390;7.180;2023-02-28T13:54:44;0.95;;;0.65;;
36449;SDS011;22475;51.390;7.180;2023-02-28T13:57:25;1.52;;;0.80;;
36449;SDS011;22475;51.390;7.180;2023-02-28T14:00:04;1.73;;;0.80;;
36449;SDS011;22475;51.390;7.180;2023-02-28T14:02:50;1.20;;;0.82;;
36449;SDS011;22475;51.390;7.180;2023-02-28T14:08:44;3.17;;;1.13;;
36449;SDS011;22475;51.390;7.180;2023-02-28T14:11:24;0.65;;;0.65;;
36449;SDS011;22475;51.390;7.180;2023-02-28T14:13:53;2.25;;;1.08;;
36449;SDS011;22475;51.390;7.180;2023-02-28T14:16:20;2.03;;;1.23;;
36449;SDS011;22475;51.390;7.180;2023-02-28T14:18:49;1.25;;;0.80;;
36449;SDS011;22475;51.390;7.180;2023-02-28T14:21:23;1.75;;;1.00;;
36449;SDS011;22475;51.390;7.180;2023-02-28T14:23:57;2.03;;;0.90;;
36449;SDS011;22475;51.390;7.180;2023-02-28T14:27:00;0.88;;;0.88;;
36449;SDS011;22475;51.390;7.180;2023-02-28T14:29:44;2.30;;;1.33;;
36449;SDS011;22475;51.390;7.180;2023-02-28T14:32:43;2.50;;;1.23;;
36449;SDS011;22475;51.390;7.180;2023-02-28T14:35:21;3.10;;;1.90;;
36449;SDS011;22475;51.390;7.180;2023-02-28T14:38:04;4.35;;;1.52;;
36449;SDS011;22475;51.390;7.180;2023-02-28T14:43:00;3.10;;;1.13;;
36449;SDS011;22475;51.390;7.180;2023-02-28T14:45:28;5.15;;;1.08;;
36449;SDS011;22475;51.390;7.180;2023-02-28T14:47:57;2.10;;;1.20;;
36449;SDS011;22475;51.390;7.180;2023-02-28T14:50:26;1.58;;;1.38;;
36449;SDS011;22475;51.390;7.180;2023-02-28T14:52:55;1.48;;;1.38;;
36449;SDS011;22475;51.390;7.180;2023-02-28T14:55:25;3.58;;;1.38;;
36449;SDS011;22475;51.390;7.180;2023-02-28T15:00:23;1.17;;;1.10;;
36449;SDS011;22475;51.390;7.180;2023-02-28T15:02:51;1.40;;;0.68;;
36449;SDS011;22475;51.390;7.180;2023-02-28T15:05:22;1.15;;;1.00;;
36449;SDS011;22475;51.390;7.180;2023-02-28T15:08:00;2.22;;;1.33;;
36449;SDS011;22475;51.390;7.180;2023-02-28T15:10:30;5.25;;;0.88;;
36449;SDS011;22475;51.390;7.180;2023-02-28T15:12:58;0.93;;;0.75;;
36449;SDS011;22475;51.390;7.180;2023-02-28T15:15:32;2.33;;;1.48;;
36449;SDS011;22475;51.390;7.180;2023-02-28T15:18:06;1.65;;;1.10;;
36449;SDS011;22475;51.390;7.180;2023-02-28T15:20:33;2.08;;;1.08;;
36449;SDS011;22475;51.390;7.180;2023-02-28T15:23:04;2.08;;;1.17;;
36449;SDS011;22475;51.390;7.180;2023-02-28T15:25:33;0.63;;;0.60;;
36449;SDS011;22475;51.390;7.180;2023-02-28T15:28:00;4.50;;;1.10;;
36449;SDS011;22475;51.390;7.180;2023-02-28T15:30:28;1.23;;;1.13;;
36449;SDS011;22475;51.390;7.180;2023-02-28T15:33:07;0.65;;;0.65;;
36449;SDS011;22475;51.390;7.180;2023-02-28T15:35:44;3.92;;;1.20;;
36449;SDS011;22475;51.390;7.180;2023-02-28T15:38:14;3.72;;;1.33;;
36449;SDS011;22475;51.390;7.180;2023-02-28T15:40:45;1.15;;;1.00;;
36449;SDS011;22475;51.390;7.180;2023-02-28T15:43:19;0.88;;;0.50;;
36449;SDS011;22475;51.390;7.180;2023-02-28T15:45:51;0.98;;;0.95;;